createdAt,value
2023-02-19T00:01:12.726Z,100533.81
2023-02-19T00:03:40.648Z,100528.41
2023-02-19T00:06:09.972Z,100520.84
2023-02-19T00:08:37.901Z,100512.44
2023-02-19T00:11:06.979Z,100507.31
2023-02-19T00:13:41.807Z,100503.47
2023-02-19T00:16:19.509Z,100514.78
2023-02-19T00:18:46.401Z,100518.38
2023-02-19T00:21:13.559Z,100513.19
2023-02-19T00:23:40.216Z,100506.63
2023-02-19T00:26:18.233Z,100489.34
2023-02-19T00:28:46.519Z,100495.25
2023-02-19T00:31:24.680Z,100485.78
2023-02-19T00:33:53.293Z,100476.91
2023-02-19T00:36:20.302Z,100487.16
2023-02-19T00:38:46.990Z,100482.38
2023-02-19T00:41:14.948Z,100488.81
2023-02-19T00:43:41.243Z,100491.19
2023-02-19T00:46:07.588Z,100492.56
2023-02-19T00:48:33.893Z,100483.16
2023-02-19T00:51:00.192Z,100481.19
2023-02-19T00:53:26.479Z,100480.34
2023-02-19T00:55:52.779Z,100477.41
2023-02-19T00:58:19.092Z,100481.19
2023-02-19T01:00:45.388Z,100482.81
2023-02-19T01:03:11.698Z,100481.28
2023-02-19T01:05:38.011Z,100479.56
2023-02-19T01:08:04.517Z,100465.94
2023-02-19T01:10:30.929Z,100477.59
2023-02-19T01:12:57.241Z,100482.72
2023-02-19T01:15:23.559Z,100476.97
2023-02-19T01:17:49.877Z,100478.41
2023-02-19T01:20:16.354Z,100474.91
2023-02-19T01:22:42.660Z,100486.53
2023-02-19T01:25:08.954Z,100481.66
2023-02-19T01:27:35.265Z,100477.88
2023-02-19T01:30:01.703Z,100470.75
2023-02-19T01:32:28.064Z,100476.72
2023-02-19T01:34:54.374Z,100469.97
2023-02-19T01:37:20.677Z,100480.00
2023-02-19T01:39:47.570Z,100474.25
2023-02-19T01:42:15.692Z,100474.56
2023-02-19T01:44:44.986Z,100475.88
2023-02-19T01:47:12.560Z,100480.56
2023-02-19T01:49:47.098Z,100474.91
2023-02-19T01:52:18.729Z,100475.31
2023-02-19T01:54:46.559Z,100478.75
2023-02-19T01:57:18.807Z,100477.72
2023-02-19T01:59:47.829Z,100466.09
2023-02-19T02:02:14.342Z,100456.94
2023-02-19T02:04:40.677Z,100461.03
2023-02-19T02:07:07.499Z,100464.75
2023-02-19T02:09:33.791Z,100464.84
2023-02-19T02:12:00.104Z,100463.16
2023-02-19T02:14:30.048Z,100469.41
2023-02-19T02:17:24.386Z,100465.41
2023-02-19T02:20:32.086Z,100463.13
2023-02-19T02:23:46.559Z,100459.59
2023-02-19T02:26:34.188Z,100464.25
2023-02-19T02:29:27.878Z,100467.41
2023-02-19T02:31:58.883Z,100464.69
2023-02-19T02:34:34.514Z,100456.78
2023-02-19T02:37:03.416Z,100469.00
2023-02-19T02:39:31.368Z,100458.69
2023-02-19T02:41:59.922Z,100456.56
2023-02-19T02:44:35.040Z,100452.88
2023-02-19T02:47:03.753Z,100457.09
2023-02-19T02:49:30.635Z,100459.88
2023-02-19T02:51:58.214Z,100463.28
2023-02-19T02:54:31.128Z,100469.22
2023-02-19T02:56:59.340Z,100465.78
2023-02-19T02:59:31.099Z,100472.22
2023-02-19T03:02:02.928Z,100473.03
2023-02-19T03:05:00.550Z,100472.84
2023-02-19T03:07:31.720Z,100461.16
2023-02-19T03:10:02.489Z,100471.47
2023-02-19T03:12:30.647Z,100461.97
2023-02-19T03:15:02.884Z,100466.91
2023-02-19T03:17:32.597Z,100465.22
2023-02-19T03:20:03.338Z,100467.06
2023-02-19T03:22:33.588Z,100465.72
2023-02-19T03:25:05.124Z,100464.38
2023-02-19T03:27:34.449Z,100474.75
2023-02-19T03:30:08.220Z,100466.63
2023-02-19T03:32:59.711Z,100474.78
2023-02-19T03:35:31.327Z,100466.84
2023-02-19T03:38:08.731Z,100475.41
2023-02-19T03:40:50.341Z,100478.78
2023-02-19T03:43:40.814Z,100479.63
2023-02-19T03:46:07.088Z,100477.16
2023-02-19T03:48:35.828Z,100485.81
2023-02-19T03:51:09.066Z,100478.84
2023-02-19T03:53:52.108Z,100483.00
2023-02-19T03:56:27.177Z,100485.34
2023-02-19T03:59:02.730Z,100484.84
2023-02-19T04:01:44.471Z,100493.91
2023-02-19T04:04:21.761Z,100497.06
2023-02-19T04:06:54.188Z,100503.75
2023-02-19T04:09:23.159Z,100501.03
2023-02-19T04:11:51.095Z,100502.63
2023-02-19T04:14:35.493Z,100507.09
2023-02-19T04:17:06.393Z,100516.38
2023-02-19T04:19:37.411Z,100526.34
2023-02-19T04:22:07.708Z,100533.94
2023-02-19T04:24:41.485Z,100526.38
2023-02-19T04:27:09.563Z,100524.63
2023-02-19T04:29:37.752Z,100532.38
2023-02-19T04:32:05.597Z,100536.78
2023-02-19T04:34:31.932Z,100538.31
2023-02-19T04:36:58.244Z,100539.94
2023-02-19T04:39:24.613Z,100533.53
2023-02-19T04:41:50.926Z,100543.81
2023-02-19T04:44:17.250Z,100548.13
2023-02-19T04:46:43.548Z,100550.81
2023-02-19T04:49:10.113Z,100553.84
2023-02-19T04:51:36.428Z,100554.97
2023-02-19T04:54:02.746Z,100560.63
2023-02-19T04:56:29.074Z,100568.25
2023-02-19T04:58:55.621Z,100571.41
2023-02-19T05:01:22.095Z,100577.66
2023-02-19T05:03:48.399Z,100562.31
2023-02-19T05:06:14.951Z,100572.00
2023-02-19T05:08:41.744Z,100567.16
2023-02-19T05:11:10.193Z,100577.47
2023-02-19T05:13:37.049Z,100573.69
2023-02-19T05:16:06.495Z,100584.97
2023-02-19T05:18:33.459Z,100582.00
2023-02-19T05:21:00.520Z,100588.22
2023-02-19T05:23:28.199Z,100597.47
2023-02-19T05:25:54.562Z,100589.84
2023-02-19T05:28:21.191Z,100600.44
2023-02-19T05:30:52.533Z,100602.34
2023-02-19T05:33:20.596Z,100606.69
2023-02-19T05:35:49.545Z,100611.56
2023-02-19T05:38:17.255Z,100612.63
2023-02-19T05:40:44.835Z,100617.22
2023-02-19T05:43:12.691Z,100611.06
2023-02-19T05:45:39.383Z,100615.91
2023-02-19T05:48:07.022Z,100617.59
2023-02-19T05:50:35.469Z,100623.25
2023-02-19T05:53:03.138Z,100628.13
2023-02-19T05:55:30.428Z,100664.31
2023-02-19T05:57:56.738Z,100671.41
2023-02-19T06:00:23.212Z,100672.34
2023-02-19T06:02:49.648Z,100680.09
2023-02-19T06:05:16.042Z,100699.06
2023-02-19T06:07:42.341Z,100714.00
2023-02-19T06:10:10.323Z,100716.88
2023-02-19T06:12:37.378Z,100713.47
2023-02-19T06:15:05.727Z,100725.38
2023-02-19T06:17:33.462Z,100729.66
2023-02-19T06:20:00.427Z,100735.97
2023-02-19T06:22:27.696Z,100746.28
2023-02-19T06:24:54.076Z,100747.34
2023-02-19T06:27:20.383Z,100753.88
2023-02-19T06:29:46.693Z,100756.81
2023-02-19T06:32:13.063Z,100758.69
2023-02-19T06:34:39.448Z,100771.00
2023-02-19T06:37:05.741Z,100773.59
2023-02-19T06:39:32.151Z,100785.44
2023-02-19T06:41:58.728Z,100789.31
2023-02-19T06:44:25.192Z,100801.59
2023-02-19T06:46:55.183Z,100794.69
2023-02-19T06:49:21.960Z,100812.72
2023-02-19T06:51:48.350Z,100825.91
2023-02-19T06:54:14.661Z,100826.25
2023-02-19T06:56:41.788Z,100842.38
2023-02-19T06:59:11.368Z,100847.06
2023-02-19T07:01:39.314Z,100851.19
2023-02-19T07:04:07.209Z,100855.63
2023-02-19T07:06:35.188Z,100859.38
2023-02-19T07:09:01.891Z,100875.84
2023-02-19T07:11:33.297Z,100884.50
2023-02-19T07:14:01.827Z,100892.97
2023-02-19T07:16:28.620Z,100895.75
2023-02-19T07:18:59.574Z,100901.50
2023-02-19T07:21:27.160Z,100912.72
2023-02-19T07:23:54.043Z,100922.25
2023-02-19T07:26:21.594Z,100923.97
2023-02-19T07:28:49.618Z,100924.94
2023-02-19T07:31:17.788Z,100927.94
2023-02-19T07:33:44.657Z,100948.25
2023-02-19T07:36:11.994Z,100944.47
2023-02-19T07:38:38.511Z,100947.03
2023-02-19T07:41:06.529Z,100949.31
2023-02-19T07:43:35.682Z,100952.88
2023-02-19T07:46:13.212Z,100966.72
2023-02-19T07:48:42.061Z,100979.19
2023-02-19T07:51:14.882Z,100984.22
2023-02-19T07:53:41.184Z,100990.75
2023-02-19T07:56:08.707Z,101000.09
2023-02-19T07:58:35.293Z,101007.03
2023-02-19T08:01:14.437Z,100997.06
2023-02-19T08:03:41.616Z,101014.94
2023-02-19T08:06:08.575Z,100999.03
2023-02-19T08:08:34.914Z,101014.63
2023-02-19T08:11:02.683Z,101009.41
2023-02-19T08:13:30.741Z,101006.66
2023-02-19T08:16:19.951Z,101014.72
2023-02-19T08:18:47.917Z,101024.63
2023-02-19T08:21:14.785Z,101023.31
2023-02-19T08:23:41.193Z,101027.75
2023-02-19T08:26:07.638Z,101028.78
2023-02-19T08:28:34.024Z,101039.06
2023-02-19T08:31:02.895Z,101048.03
2023-02-19T08:33:29.351Z,101049.13
2023-02-19T08:35:56.075Z,101061.28
2023-02-19T08:38:22.951Z,101064.97
2023-02-19T08:40:49.259Z,101056.88
2023-02-19T08:43:16.941Z,101064.06
2023-02-19T08:45:45.071Z,101064.53
2023-02-19T08:48:11.940Z,101068.47
2023-02-19T08:50:38.811Z,101074.06
2023-02-19T08:53:06.446Z,101070.13
2023-02-19T08:55:33.723Z,101070.84
2023-02-19T08:58:00.239Z,101078.88
2023-02-19T09:00:26.552Z,101077.00
2023-02-19T09:02:52.880Z,101075.38
2023-02-19T09:05:19.289Z,101085.19
2023-02-19T09:07:45.596Z,101093.97
2023-02-19T09:10:13.573Z,101097.41
2023-02-19T09:12:40.572Z,101099.28
2023-02-19T09:15:07.529Z,101099.50
2023-02-19T09:17:33.839Z,101111.03
2023-02-19T09:20:00.174Z,101118.56
2023-02-19T09:22:26.489Z,101124.25
2023-02-19T09:24:52.849Z,101135.88
2023-02-19T09:27:20.359Z,101134.84
2023-02-19T09:29:46.875Z,101142.81
2023-02-19T09:32:14.018Z,101135.66
2023-02-19T09:34:40.696Z,101145.56
2023-02-19T09:37:07.731Z,101158.59
2023-02-19T09:39:34.686Z,101155.16
2023-02-19T09:42:09.222Z,101162.69
2023-02-19T09:44:38.993Z,101163.41
2023-02-19T09:47:21.078Z,101171.22
2023-02-19T09:49:49.434Z,101175.56
2023-02-19T09:52:19.692Z,101181.97
2023-02-19T09:54:47.464Z,101188.94
2023-02-19T09:57:17.454Z,101194.28
2023-02-19T10:00:06.745Z,101194.38
2023-02-19T10:02:33.968Z,101209.00
2023-02-19T10:05:00.389Z,101212.59
2023-02-19T10:07:38.985Z,101212.19
2023-02-19T10:10:14.369Z,101225.31
2023-02-19T10:12:50.312Z,101226.13
2023-02-19T10:15:22.359Z,101229.63
2023-02-19T10:17:48.707Z,101250.72
2023-02-19T10:20:17.507Z,101248.09
2023-02-19T10:22:43.901Z,101254.78
2023-02-19T10:25:14.748Z,101246.66
2023-02-19T10:27:41.089Z,101254.47
2023-02-19T10:30:18.223Z,101252.22
2023-02-19T10:32:59.424Z,101253.09
2023-02-19T10:35:26.310Z,101266.13
2023-02-19T10:37:52.960Z,101279.94
2023-02-19T10:40:22.574Z,101270.41
2023-02-19T10:42:52.598Z,101283.53
2023-02-19T10:45:23.069Z,101281.66
2023-02-19T10:47:50.178Z,101276.13
2023-02-19T10:50:26.044Z,101262.44
2023-02-19T10:52:55.643Z,101272.84
2023-02-19T10:55:37.789Z,101269.47
2023-02-19T10:58:24.722Z,101269.34
2023-02-19T11:01:10.947Z,101268.97
2023-02-19T11:03:38.214Z,101275.03
2023-02-19T11:06:07.592Z,101284.88
2023-02-19T11:08:57.078Z,101291.84
2023-02-19T11:11:35.766Z,101295.22
2023-02-19T11:14:14.179Z,101289.97
2023-02-19T11:16:44.528Z,101299.50
2023-02-19T11:19:23.838Z,101304.50
2023-02-19T11:21:50.451Z,101294.88
2023-02-19T11:24:30.912Z,101302.50
2023-02-19T11:26:58.395Z,101290.63
2023-02-19T11:29:25.314Z,101288.63
2023-02-19T11:31:51.743Z,101285.44
2023-02-19T11:34:18.077Z,101289.41
2023-02-19T11:36:44.387Z,101296.97
2023-02-19T11:39:10.640Z,101293.84
2023-02-19T11:41:55.418Z,101296.00
2023-02-19T11:44:50.566Z,101297.06
2023-02-19T11:47:39.655Z,101300.25
2023-02-19T11:50:22.898Z,101303.34
2023-02-19T11:53:03.482Z,101301.69
2023-02-19T11:55:45.031Z,101301.84
2023-02-19T11:58:36.208Z,101299.75
2023-02-19T12:01:30.318Z,101297.97
2023-02-19T12:04:35.293Z,101285.31
2023-02-19T12:07:24.797Z,101290.56
2023-02-19T12:10:13.082Z,101286.03
2023-02-19T12:13:02.617Z,101276.56
2023-02-19T12:15:58.455Z,101278.16
2023-02-19T12:18:39.762Z,101278.69
2023-02-19T12:21:21.312Z,101280.22
2023-02-19T12:24:08.383Z,101283.47
2023-02-19T12:26:40.721Z,101276.63
2023-02-19T12:29:44.925Z,101283.84
2023-02-19T12:32:39.626Z,101293.13
2023-02-19T12:35:20.758Z,101299.19
2023-02-19T12:38:18.306Z,101313.13
2023-02-19T12:41:05.116Z,101317.75
2023-02-19T12:43:33.671Z,101315.81
2023-02-19T12:46:08.312Z,101317.44
2023-02-19T12:48:43.803Z,101330.84
2023-02-19T12:51:23.793Z,101333.84
2023-02-19T12:54:01.356Z,101327.56
2023-02-19T12:56:36.078Z,101328.66
2023-02-19T12:59:13.725Z,101337.94
2023-02-19T13:01:50.420Z,101344.50
2023-02-19T13:04:22.590Z,101342.75
2023-02-19T13:06:55.726Z,101332.75
2023-02-19T13:09:33.884Z,101345.97
2023-02-19T13:12:08.198Z,101341.75
2023-02-19T13:14:39.936Z,101337.78
2023-02-19T13:17:17.381Z,101345.44
2023-02-19T13:19:48.586Z,101346.31
2023-02-19T13:22:42.647Z,101352.69
2023-02-19T13:25:09.859Z,101341.81
2023-02-19T13:28:20.297Z,101338.16
2023-02-19T13:31:05.345Z,101338.56
2023-02-19T13:34:03.712Z,101343.25
2023-02-19T13:36:31.084Z,101341.16
2023-02-19T13:38:59.719Z,101344.00
2023-02-19T13:41:40.216Z,101337.41
2023-02-19T13:44:14.850Z,101338.91
2023-02-19T13:46:46.190Z,101339.41
2023-02-19T13:49:27.855Z,101332.69
2023-02-19T13:51:59.167Z,101331.88
2023-02-19T13:54:31.186Z,101329.09
2023-02-19T13:57:17.725Z,101330.88
2023-02-19T13:59:44.844Z,101335.31
2023-02-19T14:02:21.682Z,101343.03
2023-02-19T14:04:59.910Z,101339.75
2023-02-19T14:07:48.212Z,101349.94
2023-02-19T14:10:50.673Z,101339.25
2023-02-19T14:13:51.260Z,101356.84
2023-02-19T14:16:46.740Z,101363.66
2023-02-19T14:19:42.209Z,101365.31
2023-02-19T14:22:45.468Z,101368.91
2023-02-19T14:25:29.153Z,101366.78
2023-02-19T14:27:59.821Z,101369.78
2023-02-19T14:30:27.620Z,101381.97
2023-02-19T14:33:07.657Z,101383.63
2023-02-19T14:35:40.895Z,101384.25
2023-02-19T14:38:15.824Z,101390.66
2023-02-19T14:40:42.208Z,101384.38
2023-02-19T14:43:14.184Z,101386.28
2023-02-19T14:45:54.847Z,101389.94
2023-02-19T14:48:38.207Z,101400.97
2023-02-19T14:51:10.322Z,101386.47
2023-02-19T14:53:44.146Z,101375.47
2023-02-19T14:56:22.762Z,101373.94
2023-02-19T14:59:12.013Z,101384.25
2023-02-19T15:01:38.695Z,101368.09
2023-02-19T15:04:06.141Z,101357.44
2023-02-19T15:06:35.107Z,101364.53
2023-02-19T15:09:06.913Z,101352.81
2023-02-19T15:11:35.026Z,101345.00
2023-02-19T15:14:07.050Z,101346.91
2023-02-19T15:16:35.873Z,101338.59
2023-02-19T15:19:06.217Z,101334.66
2023-02-19T15:21:34.582Z,101327.00
2023-02-19T15:24:03.832Z,101323.25
2023-02-19T15:26:38.875Z,101323.03
2023-02-19T15:29:11.950Z,101326.13
2023-02-19T15:31:45.820Z,101323.84
2023-02-19T15:34:17.220Z,101335.16
2023-02-19T15:36:43.859Z,101336.00
2023-02-19T15:39:25.240Z,101332.69
2023-02-19T15:41:55.218Z,101330.72
2023-02-19T15:44:29.499Z,101329.50
2023-02-19T15:46:58.811Z,101332.78
2023-02-19T15:49:40.977Z,101337.59
2023-02-19T15:52:11.793Z,101337.69
2023-02-19T15:54:52.604Z,101337.91
2023-02-19T15:57:25.645Z,101336.72
2023-02-19T16:00:02.718Z,101338.69
2023-02-19T16:02:29.360Z,101354.75
2023-02-19T16:04:56.326Z,101359.63
2023-02-19T16:07:27.908Z,101359.94
2023-02-19T16:10:18.426Z,101359.44
2023-02-19T16:12:54.772Z,101364.25
2023-02-19T16:15:21.225Z,101362.72
2023-02-19T16:17:47.785Z,101374.31
2023-02-19T16:20:22.604Z,101372.78
2023-02-19T16:22:49.682Z,101366.66
2023-02-19T16:25:29.084Z,101380.97
2023-02-19T16:27:55.969Z,101377.03
2023-02-19T16:30:31.449Z,101386.13
2023-02-19T16:33:20.153Z,101378.53
2023-02-19T16:35:47.314Z,101386.13
2023-02-19T16:38:15.332Z,101393.75
2023-02-19T16:40:50.529Z,101391.97
2023-02-19T16:43:37.506Z,101393.72
2023-02-19T16:46:03.918Z,101382.34
2023-02-19T16:48:30.341Z,101394.38
2023-02-19T16:50:56.736Z,101398.53
2023-02-19T16:53:24.482Z,101394.31
2023-02-19T16:55:52.076Z,101386.63
2023-02-19T16:58:18.431Z,101400.28
2023-02-19T17:00:44.816Z,101397.25
2023-02-19T17:03:15.212Z,101416.88
2023-02-19T17:05:42.035Z,101420.13
2023-02-19T17:08:29.726Z,101422.75
2023-02-19T17:10:56.329Z,101422.59
2023-02-19T17:13:22.668Z,101424.78
2023-02-19T17:15:49.035Z,101424.53
2023-02-19T17:18:15.634Z,101415.59
2023-02-19T17:20:43.486Z,101409.44
2023-02-19T17:23:09.779Z,101419.22
2023-02-19T17:25:36.156Z,101424.19
2023-02-19T17:28:02.484Z,101426.16
2023-02-19T17:30:31.746Z,101426.16
2023-02-19T17:32:58.141Z,101430.41
2023-02-19T17:35:24.780Z,101436.47
2023-02-19T17:37:53.393Z,101426.31
2023-02-19T17:40:33.581Z,101432.75
2023-02-19T17:43:00.590Z,101431.19
2023-02-19T17:45:27.055Z,101426.38
2023-02-19T17:47:53.407Z,101428.75
2023-02-19T17:50:22.427Z,101434.97
2023-02-19T17:52:48.814Z,101428.66
2023-02-19T17:55:16.295Z,101420.56
2023-02-19T17:57:42.586Z,101415.78
2023-02-19T18:00:10.794Z,101417.66
2023-02-19T18:02:37.129Z,101413.88
2023-02-19T18:05:03.458Z,101419.44
2023-02-19T18:07:29.790Z,101407.94
2023-02-19T18:09:56.104Z,101410.28
2023-02-19T18:12:22.421Z,101420.31
2023-02-19T18:14:48.722Z,101425.22
2023-02-19T18:17:15.044Z,101424.25
2023-02-19T18:19:44.078Z,101422.13
2023-02-19T18:22:10.663Z,101418.09
2023-02-19T18:24:37.242Z,101426.66
2023-02-19T18:27:03.572Z,101446.38
2023-02-19T18:29:29.888Z,101439.75
2023-02-19T18:31:56.498Z,101438.78
2023-02-19T18:34:22.842Z,101444.44
2023-02-19T18:36:49.533Z,101444.75
2023-02-19T18:39:16.158Z,101459.19
2023-02-19T18:41:46.686Z,101457.84
2023-02-19T18:44:12.973Z,101455.59
2023-02-19T18:46:39.288Z,101467.56
2023-02-19T18:49:06.627Z,101466.94
2023-02-19T18:51:32.935Z,101461.88
2023-02-19T18:53:59.226Z,101466.06
2023-02-19T18:56:25.521Z,101462.44
2023-02-19T18:58:55.116Z,101466.31
2023-02-19T19:01:21.808Z,101463.94
2023-02-19T19:03:48.194Z,101464.56
2023-02-19T19:06:18.066Z,101459.66
2023-02-19T19:08:44.471Z,101467.19
2023-02-19T19:11:11.251Z,101468.16
2023-02-19T19:13:37.741Z,101469.41
2023-02-19T19:16:04.340Z,101467.66
2023-02-19T19:18:31.219Z,101471.41
2023-02-19T19:20:58.010Z,101469.41
2023-02-19T19:23:24.373Z,101473.63
2023-02-19T19:25:50.672Z,101467.56
2023-02-19T19:28:17.047Z,101468.81
2023-02-19T19:30:43.490Z,101462.19
2023-02-19T19:33:09.850Z,101468.72
2023-02-19T19:35:36.244Z,101468.34
2023-02-19T19:38:02.603Z,101461.78
2023-02-19T19:40:28.914Z,101457.69
2023-02-19T19:42:55.210Z,101457.38
2023-02-19T19:45:21.789Z,101459.00
2023-02-19T19:47:48.405Z,101461.22
2023-02-19T19:50:16.497Z,101459.91
2023-02-19T19:52:42.834Z,101470.09
2023-02-19T19:55:09.620Z,101458.41
2023-02-19T19:57:36.188Z,101470.25
2023-02-19T20:00:02.922Z,101468.81
2023-02-19T20:02:29.327Z,101482.63
2023-02-19T20:04:55.705Z,101482.19
2023-02-19T20:07:22.097Z,101491.81
2023-02-19T20:09:49.653Z,101481.72
2023-02-19T20:12:16.959Z,101477.97
2023-02-19T20:14:44.475Z,101474.19
2023-02-19T20:17:10.804Z,101480.59
2023-02-19T20:19:37.237Z,101474.75
2023-02-19T20:22:03.635Z,101478.97
2023-02-19T20:24:30.673Z,101484.22
2023-02-19T20:26:59.153Z,101482.66
2023-02-19T20:29:26.620Z,101480.22
2023-02-19T20:31:53.017Z,101477.44
2023-02-19T20:34:19.372Z,101478.25
2023-02-19T20:36:47.492Z,101473.22
2023-02-19T20:39:15.838Z,101469.09
2023-02-19T20:41:50.141Z,101471.22
2023-02-19T20:44:17.302Z,101459.97
2023-02-19T20:46:45.076Z,101460.56
2023-02-19T20:49:12.681Z,101456.19
2023-02-19T20:51:53.171Z,101451.63
2023-02-19T20:54:22.231Z,101443.41
2023-02-19T20:56:50.954Z,101449.56
2023-02-19T20:59:18.292Z,101453.31
2023-02-19T21:01:44.838Z,101452.59
2023-02-19T21:04:12.119Z,101448.50
2023-02-19T21:06:38.552Z,101449.34
2023-02-19T21:09:05.349Z,101448.84
2023-02-19T21:11:32.394Z,101456.69
2023-02-19T21:13:58.728Z,101464.28
2023-02-19T21:16:30.563Z,101459.97
2023-02-19T21:18:57.402Z,101461.59
2023-02-19T21:21:24.941Z,101460.94
2023-02-19T21:23:52.467Z,101461.06
2023-02-19T21:26:18.891Z,101461.53
2023-02-19T21:28:45.256Z,101461.53
2023-02-19T21:31:11.877Z,101474.69
2023-02-19T21:33:38.252Z,101478.94
2023-02-19T21:36:05.285Z,101482.63
2023-02-19T21:38:32.725Z,101477.59
2023-02-19T21:40:59.084Z,101492.22
2023-02-19T21:43:25.391Z,101494.31
2023-02-19T21:45:51.733Z,101489.66
2023-02-19T21:48:18.069Z,101482.81
2023-02-19T21:50:44.451Z,101473.34
2023-02-19T21:53:11.171Z,101474.97
2023-02-19T21:55:38.538Z,101477.56
2023-02-19T21:58:04.921Z,101490.31
2023-02-19T22:00:31.262Z,101478.84
2023-02-19T22:02:57.663Z,101482.56
2023-02-19T22:05:25.250Z,101480.28
2023-02-19T22:07:51.610Z,101476.25
2023-02-19T22:10:17.933Z,101463.69
2023-02-19T22:12:44.244Z,101462.72
2023-02-19T22:15:10.606Z,101455.66
2023-02-19T22:17:36.896Z,101454.69
2023-02-19T22:20:03.305Z,101449.28
2023-02-19T22:22:29.618Z,101443.97
2023-02-19T22:24:55.942Z,101448.22
2023-02-19T22:27:22.277Z,101438.25
2023-02-19T22:29:48.573Z,101434.84
2023-02-19T22:32:15.140Z,101428.53
2023-02-19T22:34:42.068Z,101431.94
2023-02-19T22:37:09.275Z,101430.69
2023-02-19T22:39:35.567Z,101436.75
2023-02-19T22:42:01.985Z,101436.28
2023-02-19T22:44:28.285Z,101437.44
2023-02-19T22:46:55.995Z,101433.44
2023-02-19T22:49:23.190Z,101444.59
2023-02-19T22:51:53.456Z,101446.59
2023-02-19T22:54:19.916Z,101450.16
2023-02-19T22:56:46.237Z,101449.19
2023-02-19T22:59:12.534Z,101450.44
2023-02-19T23:01:38.870Z,101453.59
2023-02-19T23:04:05.261Z,101450.72
2023-02-19T23:06:34.370Z,101450.22
2023-02-19T23:09:08.546Z,101448.69
2023-02-19T23:11:38.286Z,101439.06
2023-02-19T23:14:05.663Z,101439.09
2023-02-19T23:16:32.262Z,101459.31
2023-02-19T23:18:58.601Z,101450.69
2023-02-19T23:21:24.897Z,101441.38
2023-02-19T23:23:51.209Z,101452.97
2023-02-19T23:26:17.719Z,101450.66
2023-02-19T23:28:45.255Z,101449.34
2023-02-19T23:31:12.077Z,101446.59
2023-02-19T23:33:38.982Z,101452.78
2023-02-19T23:36:05.925Z,101457.44
2023-02-19T23:38:32.339Z,101454.41
2023-02-19T23:40:59.124Z,101449.34
2023-02-19T23:43:25.649Z,101445.31
2023-02-19T23:45:51.981Z,101438.06
2023-02-19T23:48:18.322Z,101441.53
2023-02-19T23:50:44.830Z,101450.66
2023-02-19T23:53:11.233Z,101446.75
2023-02-19T23:55:37.550Z,101449.78
2023-02-19T23:58:03.897Z,101452.47
